Terminal Aerodrome Forecast
Issued by NWS Lubbock, TX

Home | Current Version | Previous Version | Text Only | Print | Product List | Glossary On
Versions: 1 2 3 4 5 6 7 8 9 10 11 12 13 14 15 16
392
FTUS44 KLUB 290134 AAA
TAFLBB
TAF AMD
KLBB 290134Z 2902/2924 15011KT P6SM BKN120 OVC250
     FM290240 36015G23KT P6SM VCTS SCT080CB BKN100 OVC250
     FM290900 01018G27KT P6SM SCT007 OVC015=

USA.gov is the U.S. government's official web portal to all federal, state and local government web resources and services.